M I D A S
Marine Information and Data Acquisition System
Tripno 673 of the Zeeleeuw from 2004-03-22 09:02:38 to 2004-03-22 14:32:03
Back to CruiseResearch ActivitiesStationsMapUnderway DataData graphs

EquipmentUnitsComment
TimeDGPSUTC
LatitudeDGPSDM.mWGS84
LongitudeDGPSDM.mWGS84
TemperatureSBE03/SBE38deg celciusITS90
ConductivitySBE21S/mITS90
SalinitySBE21 Practical Salinity Units
ChlorophylAChelsea fluorimeterg/lCalibrated in Aceton
Missing or incorrect values are displayed as -999
Sea surface data collected by the RV Zeeleeuw from 2004-03-22 09:02:38 to 2004-03-22 14:32:03
Time Latitude Longitude Temperature Conductivity Salinity ChlorophylA
2004-03-22 09:03:40 51°13.592 2°56.102 8.541519 3.084501 28.742964 17.354409
2004-03-22 09:04:40 51°13.605 2°56.042 8.566266 2.977018 27.631813 27.029007
2004-03-22 09:05:41 51°13.638 2°55.952 8.53984 2.792632 25.730867 24.770477
2004-03-22 09:06:41 51°13.672 2°55.848 8.433069 3.032073 28.248822 21.871469
2004-03-22 09:07:40 51°13.687 2°55.768 8.452142 3.064604 28.614716 22.781623
2004-03-22 09:08:40 51°13.691 2°55.767 8.459298 2.786845 25.747549 24.770477
2004-03-22 09:09:40 51°13.69 2°55.748 8.416106 2.917023 27.102678 25.17499
2004-03-22 09:10:41 51°13.754 2°55.694 8.445705 2.771273 25.612666 26.89417
2004-03-22 09:11:40 51°13.853 2°55.618 8.462132 2.639662 24.268203 28.175127
2004-03-22 09:12:41 51°13.968 2°55.535 8.457713 2.645131 24.309772 25.781759
2004-03-22 09:13:41 51°14.083 2°55.452 8.432733 2.50283 22.887525 24.06258
2004-03-22 09:14:41 51°14.213 2°55.331 8.407695 2.412298 21.990939 20.759059
2004-03-22 09:15:41 51°14.332 2°55.131 8.398177 2.384333 21.732618 20.860187
2004-03-22 09:16:41 51°14.463 2°54.916 8.290592 2.721718 25.160565 20.320836
2004-03-22 09:17:41 51°14.609 2°54.72 8.026791 3.347139 31.832725 22.545657
2004-03-22 09:18:40 51°14.724 2°54.559 7.949235 3.501362 33.582446 25.040153
2004-03-22 09:19:41 51°14.731 2°54.468 7.88656 3.516534 33.812099 21.096153
2004-03-22 09:20:41 51°14.717 2°54.423 7.86795 3.520222 33.884797 20.320836
2004-03-22 09:21:39 51°14.698 2°54.405 7.859903 3.521276 33.912338 20.051161
2004-03-22 09:22:41 51°14.681 2°54.403 7.844727 3.521487 33.925992 22.107435
2004-03-22 09:23:41 51°14.666 2°54.399 7.841721 3.521066 33.931253 24.096289
2004-03-22 09:24:40 51°14.65 2°54.395 7.840266 3.519907 33.919654 22.37711
2004-03-22 09:25:41 51°14.613 2°54.395 7.841721 3.521276 33.93351 26.557076
2004-03-22 09:26:41 51°14.592 2°54.477 7.859321 3.521487 33.934138 24.905315
2004-03-22 09:27:41 51°14.654 2°54.474 7.884622 3.52391 33.933209 23.556939
2004-03-22 09:28:41 51°14.789 2°54.374 7.859709 3.524753 33.931648 22.006306
2004-03-22 09:29:41 51°14.969 2°54.237 7.834447 3.521803 33.943229 22.511947
2004-03-22 09:30:41 51°15.152 2°54.06 7.781514 3.518959 33.946182 21.062443
2004-03-22 09:31:41 51°15.342 2°53.896 7.799664 3.518959 33.955162 21.601794
2004-03-22 09:32:41 51°15.534 2°53.732 7.620604 3.516958 33.984369 20.11858
2004-03-22 09:33:41 51°15.724 2°53.564 7.553224 3.506529 34.038851 18.298272
2004-03-22 09:34:41 51°15.912 2°53.395 7.64955 3.506634 34.013628 19.039879
2004-03-22 09:35:41 51°16.101 2°53.237 7.659423 3.511691 33.999053 19.107298
2004-03-22 09:36:41 51°16.293 2°53.091 7.606151 3.511059 34.02758 18.264563
2004-03-22 09:37:41 51°16.486 2°52.948 7.565108 3.508742 34.048706 17.556665
2004-03-22 09:38:41 51°16.676 2°52.809 7.5294 3.505265 34.047476 17.354409
2004-03-22 09:39:41 51°16.864 2°52.666 7.499863 3.503159 34.0594 19.478101
2004-03-22 09:40:41 51°17.054 2°52.523 7.482798 3.501684 34.066606 20.893896
2004-03-22 09:41:41 51°17.242 2°52.379 7.471386 3.501263 34.07446 18.938751
2004-03-22 09:42:41 51°17.42 2°52.204 7.463289 3.501157 34.082428 18.871332
2004-03-22 09:43:41 51°17.588 2°52.001 7.462314 3.500947 34.085946 19.747777
2004-03-22 09:44:41 51°17.754 2°51.792 7.468509 3.500525 34.079729 17.489247
2004-03-22 09:45:41 51°17.915 2°51.573 7.483578 3.501263 34.07446 18.837623
2004-03-22 09:46:41 51°18.061 2°51.318 7.475971 3.502422 34.082857 17.388118
2004-03-22 09:47:40 51°18.204 2°51.066 7.436602 3.504002 34.121499 16.612802
2004-03-22 09:48:41 51°18.351 2°50.795 7.408243 3.504529 34.161244 16.949896
2004-03-22 09:49:41 51°18.493 2°50.534 7.375915 3.504003 34.185483 17.624084
2004-03-22 09:50:41 51°18.635 2°50.273 7.379041 3.502739 34.188428 18.871332
2004-03-22 09:51:41 51°18.771 2°49.991 7.387881 3.502107 34.17574 19.107298
2004-03-22 09:52:41 51°18.909 2°49.714 7.367659 3.501896 34.17512 17.927469
2004-03-22 09:53:41 51°19.05 2°49.436 7.379969 3.501896 34.188448 18.3994
2004-03-22 09:54:41 51°19.181 2°49.143 7.384218 3.503055 34.182694 17.893759
2004-03-22 09:55:41 51°19.306 2°48.852 7.357937 3.501158 34.177113 15.702648
2004-03-22 09:56:41 51°19.431 2°48.556 7.329739 3.504952 34.244979 13.410409
2004-03-22 09:57:40 51°19.541 2°48.253 7.314388 3.508218 34.300536 15.06217
2004-03-22 09:58:40 51°19.621 2°47.904 7.318593 3.50885 34.316621 15.466683
2004-03-22 09:59:41 51°19.662 2°47.525 7.31918 3.508218 34.299699 16.039742
2004-03-22 10:00:41 51°19.713 2°47.155 7.2916 3.506638 34.300944 16.140871
2004-03-22 10:01:41 51°19.767 2°46.788 7.264204 3.50706 34.339076 14.152016
2004-03-22 10:02:41 51°19.816 2°46.422 7.288861 3.505374 34.318212 16.17458
2004-03-22 10:03:41 51°19.864 2°46.056 7.322455 3.504109 34.270103 16.74764
2004-03-22 10:04:41 51°19.878 2°45.68 7.32182 3.501475 34.226427 17.624084
2004-03-22 10:05:41 51°19.887 2°45.297 7.305783 3.500948 34.229894 15.938614
2004-03-22 10:06:41 51°19.895 2°44.921 7.286464 3.500738 34.241818 15.904905
2004-03-22 10:07:41 51°19.876 2°44.539 7.271201 3.500527 34.2571 14.219435
2004-03-22 10:08:41 51°19.855 2°44.161 7.257843 3.502319 34.295864 13.713794
2004-03-22 10:09:41 51°19.797 2°43.792 7.26122 3.501476 34.288367 13.511537
2004-03-22 10:10:41 51°19.683 2°43.446 7.261709 3.502529 34.301513 14.017178
2004-03-22 10:11:41 51°19.529 2°43.134 7.252215 3.502845 34.307471 14.421691
2004-03-22 10:12:41 51°19.37 2°42.831 7.246782 3.502108 34.301959 13.511537
2004-03-22 10:13:41 51°19.215 2°42.526 7.23572 3.502424 34.313795 14.961042
2004-03-22 10:14:41 51°19.061 2°42.219 7.227936 3.501371 34.312397 13.410409
2004-03-22 10:15:41 51°18.904 2°41.912 7.219955 3.500844 34.312538 14.152016
2004-03-22 10:16:41 51°18.751 2°41.604 7.223823 3.499158 34.298373 13.545247
2004-03-22 10:17:41 51°18.599 2°41.294 7.224313 3.498316 34.28835 13.814922
2004-03-22 10:18:41 51°18.447 2°40.98 7.22446 3.497578 34.282834 14.590238
2004-03-22 10:19:41 51°18.296 2°40.665 7.228181 3.497051 34.272899 15.129589
2004-03-22 10:20:41 51°18.146 2°40.35 7.228524 3.497367 34.271308 13.91605
2004-03-22 10:21:41 51°18 2°40.041 7.232832 3.497473 34.2691 14.893623
2004-03-22 10:22:41 51°17.879 2°39.816 7.232293 3.496419 34.257626 15.432973
2004-03-22 10:23:41 51°17.783 2°39.645 7.235867 3.49663 34.259082 15.60152
2004-03-22 10:24:41 51°17.759 2°39.567 7.236259 3.497051 34.260317 14.859913
2004-03-22 10:25:41 51°17.739 2°39.561 7.234839 3.496735 34.259391 14.286853
2004-03-22 10:26:41 51°17.72 2°39.565 7.232881 3.496524 34.257935 14.657657
2004-03-22 10:27:41 51°17.7 2°39.574 7.228572 3.496314 34.259833 15.06217
2004-03-22 10:28:40 51°17.685 2°39.584 7.230678 3.49663 34.260759 15.972324
2004-03-22 10:29:41 51°17.672 2°39.588 7.231412 3.495892 34.255243 15.432973
2004-03-22 10:30:41 51°17.656 2°39.586 7.232538 3.496314 34.257317 15.534101
2004-03-22 10:31:41 51°17.64 2°39.582 7.23102 3.496524 34.260451 15.770067
2004-03-22 10:32:40 51°17.621 2°39.578 7.229356 3.495787 34.253257 16.208289
2004-03-22 10:33:41 51°17.6 2°39.573 7.234105 3.496103 34.255023 15.770067
2004-03-22 10:34:41 51°17.578 2°39.565 7.241545 3.497051 34.259479 15.095879
2004-03-22 10:35:41 51°17.555 2°39.556 7.251432 3.497156 34.25392 15.06217
2004-03-22 10:36:41 51°17.532 2°39.547 7.244923 3.497472 34.257361 15.06217
2004-03-22 10:37:41 51°17.508 2°39.539 7.242573 3.496946 34.25414 15.466683
2004-03-22 10:38:41 51°17.485 2°39.533 7.248153 3.497367 34.256214 15.770067
2004-03-22 10:39:41 51°17.443 2°39.512 7.252313 3.49663 34.243158 13.781212
2004-03-22 10:40:41 51°17.385 2°39.469 7.248153 3.497051 34.251097 14.320563
2004-03-22 10:41:41 51°17.332 2°39.429 7.242671 3.497156 34.25392 13.511537
2004-03-22 10:42:41 51°17.286 2°39.393 7.249083 3.496103 34.244126 14.927332
2004-03-22 10:43:41 51°17.244 2°39.363 7.252802 3.496946 34.246599 15.02846
2004-03-22 10:44:41 51°17.204 2°39.336 7.253488 3.49663 34.241483 14.590238
2004-03-22 10:45:41 51°17.163 2°39.31 7.256326 3.497578 34.24929 14.826204
2004-03-22 10:46:41 51°17.121 2°39.287 7.257647 3.497262 34.240825 14.118306
2004-03-22 10:47:41 51°17.081 2°39.267 7.25432 3.497578 34.246777 13.140734
2004-03-22 10:48:41 51°17.04 2°39.248 7.255886 3.497051 34.241044 14.219435
2004-03-22 10:49:41 51°16.998 2°39.232 7.2552 3.496946 34.240735 14.522819
2004-03-22 10:50:41 51°16.957 2°39.216 7.26029 3.497156 34.241353 14.219435
2004-03-22 10:51:41 51°16.914 2°39.203 7.266211 3.497472 34.241443 14.48911
2004-03-22 10:52:41 51°16.871 2°39.187 7.261073 3.497472 34.240606 14.927332
2004-03-22 10:53:41 51°16.826 2°39.167 7.260534 3.497051 34.239369 14.48911
2004-03-22 10:54:41 51°16.779 2°39.143 7.263666 3.497051 34.237695 14.421691
2004-03-22 10:55:41 51°16.733 2°39.118 7.264058 3.496945 34.234874 14.050888
2004-03-22 10:56:41 51°16.687 2°39.099 7.266162 3.497262 34.236639 14.084597
2004-03-22 10:57:41 51°16.641 2°39.074 7.270957 3.497683 34.236201 14.017178
2004-03-22 10:58:41 51°16.596 2°39.053 7.272424 3.497683 34.236201 14.657657
2004-03-22 10:59:41 51°16.552 2°39.03 7.270369 3.497578 34.234218 12.871059
2004-03-22 11:00:41 51°16.509 2°39.002 7.268266 3.497367 34.232762 13.680084
2004-03-22 11:01:41 51°16.468 2°38.975 7.271837 3.497788 34.23651 13.882341
2004-03-22 11:02:41 51°16.43 2°38.951 7.267825 3.497472 34.233909 13.91605
2004-03-22 11:03:41 51°16.392 2°38.924 7.272278 3.497367 34.232762 14.623947
2004-03-22 11:04:41 51°16.351 2°38.889 7.277904 3.497578 34.231707 14.691366
2004-03-22 11:05:41 51°16.311 2°38.85 7.275996 3.497577 34.229197 13.781212
2004-03-22 11:06:41 51°16.273 2°38.809 7.275947 3.497577 34.227523 13.275571
2004-03-22 11:07:40 51°16.231 2°38.773 7.278882 3.497894 34.230961 13.949759
2004-03-22 11:08:41 51°16.189 2°38.736 7.278442 3.497999 34.232107 13.410409
2004-03-22 11:09:41 51°16.148 2°38.699 7.278931 3.497894 34.231798 13.140734
2004-03-22 11:10:41 51°16.105 2°38.663 7.281817 3.49821 34.231889 12.702512
2004-03-22 11:11:41 51°16.059 2°38.634 7.282258 3.498526 34.233653 13.107024
2004-03-22 11:12:41 51°16.011 2°38.609 7.282111 3.498947 34.238237 13.34299
2004-03-22 11:13:41 51°15.963 2°38.578 7.284263 3.498842 34.234581 12.399127
2004-03-22 11:14:41 51°15.918 2°38.548 7.284557 3.498947 34.234054 13.241862
2004-03-22 11:15:41 51°15.875 2°38.518 7.284214 3.498736 34.230926 12.871059
2004-03-22 11:16:41 51°15.835 2°38.488 7.283872 3.498947 34.235727 12.736221
2004-03-22 11:17:41 51°15.799 2°38.455 7.283872 3.498947 34.236563 13.208153
2004-03-22 11:18:41 51°15.766 2°38.425 7.285193 3.499158 34.237182 12.466546
2004-03-22 11:19:41 51°15.727 2°38.402 7.287394 3.499052 34.236873 12.736221
2004-03-22 11:20:41 51°15.689 2°38.387 7.290231 3.499579 34.235909 12.635093
2004-03-22 11:21:41 51°15.662 2°38.393 7.293018 3.499684 34.239564 11.253007
2004-03-22 11:22:41 51°15.643 2°38.411 7.288568 3.499895 34.241019 13.34299
2004-03-22 11:23:41 51°15.627 2°38.433 7.292383 3.499579 34.239255 12.635093
2004-03-22 11:24:41 51°15.612 2°38.459 7.29248 3.500106 34.238291 12.635093
2004-03-22 11:25:41 51°15.599 2°38.486 7.291502 3.499895 34.239345 12.76993
2004-03-22 11:26:41 51°15.581 2°38.509 7.296882 3.500106 34.239964 13.140734
2004-03-22 11:27:41 51°15.552 2°38.5 7.287638 3.500211 34.240273 13.713794
2004-03-22 11:28:41 51°15.539 2°38.454 7.289986 3.5 34.240491 11.927195
2004-03-22 11:29:41 51°15.563 2°38.436 7.292138 3.5 34.239654 12.972187
2004-03-22 11:30:41 51°15.614 2°38.486 7.298643 3.500316 34.237236 11.556392
2004-03-22 11:31:41 51°15.684 2°38.552 7.303484 3.5 34.231291 11.354136
2004-03-22 11:32:41 51°15.745 2°38.609 7.309548 3.500527 34.232837 12.297999
2004-03-22 11:33:41 51°15.827 2°38.696 7.312677 3.501897 34.240199 11.455264
2004-03-22 11:34:41 51°15.892 2°38.837 7.315855 3.501581 34.234257 11.488973
2004-03-22 11:35:41 51°15.884 2°38.96 7.311161 3.501159 34.231348 11.590101
2004-03-22 11:36:41 51°15.874 2°39.02 7.304609 3.500632 34.229802 12.365418
2004-03-22 11:37:41 51°15.891 2°39.039 7.294486 3.500211 34.237763 14.050888
2004-03-22 11:38:40 51°15.891 2°39.076 7.29341 3.500106 34.236618 14.152016
2004-03-22 11:39:41 51°15.888 2°39.118 7.292089 3.499263 34.231635 13.983469
2004-03-22 11:40:41 51°15.889 2°39.158 7.296931 3.499895 34.230982 12.904768
2004-03-22 11:41:41 51°15.886 2°39.198 7.295024 3.5 34.232127 14.286853
2004-03-22 11:42:41 51°15.879 2°39.239 7.303386 3.500211 34.234418 12.432836
2004-03-22 11:43:41 51°15.872 2°39.278 7.30324 3.500738 34.2368 12.76993
2004-03-22 11:44:41 51°15.865 2°39.316 7.30901 3.500949 34.237418 12.432836
2004-03-22 11:45:41 51°15.857 2°39.353 7.298496 3.501159 34.242217 12.635093
2004-03-22 11:46:41 51°15.85 2°39.392 7.299327 3.500949 34.243272 12.095742
2004-03-22 11:47:41 51°15.776 2°39.381 7.305294 3.501475 34.242308 11.758648
2004-03-22 11:48:41 51°15.618 2°39.306 7.297322 3.501159 34.241381 11.08446
2004-03-22 11:49:41 51°15.413 2°39.207 7.297763 3.501159 34.24389 14.017178
2004-03-22 11:50:41 51°15.193 2°39.141 7.301137 3.50137 34.247854 12.80364
2004-03-22 11:51:41 51°14.973 2°39.088 7.306027 3.500738 34.233455 12.972187
2004-03-22 11:52:41 51°14.754 2°39.028 7.313019 3.500843 34.223736 11.859777
2004-03-22 11:53:41 51°14.533 2°38.97 7.305245 3.502107 34.241653 12.095742
2004-03-22 11:54:41 51°14.31 2°38.936 7.305734 3.503056 34.256141 12.028324
2004-03-22 11:55:41 51°14.085 2°38.897 7.300159 3.503372 34.262086 10.915913
2004-03-22 11:56:41 51°13.877 2°38.785 7.301626 3.503056 34.260324 12.533965
2004-03-22 11:57:41 51°13.686 2°38.629 7.302702 3.502634 34.254906 11.354136
2004-03-22 11:58:41 51°13.491 2°38.478 7.297371 3.502634 34.254906 12.567674
2004-03-22 11:59:41 51°13.298 2°38.327 7.303044 3.502002 34.248871 13.309281
2004-03-22 12:00:41 51°13.105 2°38.175 7.318348 3.502318 34.243943 12.23058
2004-03-22 12:01:41 51°12.917 2°38.021 7.365461 3.502739 34.227632 13.208153
2004-03-22 12:02:41 51°12.736 2°37.857 7.439139 3.504845 34.172152 14.48911
2004-03-22 12:03:41 51°12.557 2°37.691 7.453289 3.508111 34.170129 13.983469
2004-03-22 12:04:41 51°12.378 2°37.524 7.451533 3.510956 34.199267 12.23058
2004-03-22 12:05:41 51°12.198 2°37.359 7.451728 3.509059 34.182057 12.23058
2004-03-22 12:06:41 51°12.019 2°37.193 7.449435 3.510534 34.193041 13.814922
2004-03-22 12:07:41 51°11.84 2°37.026 7.432063 3.509481 34.195765 13.309281
2004-03-22 12:08:41 51°11.658 2°36.859 7.425718 3.508638 34.198279 12.365418
2004-03-22 12:09:41 51°11.478 2°36.693 7.445141 3.509586 34.202728 12.399127
2004-03-22 12:10:41 51°11.301 2°36.524 7.466509 3.511377 34.198011 14.859913
2004-03-22 12:11:41 51°11.125 2°36.352 7.477141 3.512641 34.194247 12.365418
2004-03-22 12:12:41 51°10.957 2°36.164 7.47046 3.512957 34.198498 12.972187
2004-03-22 12:13:41 51°10.789 2°35.973 7.476263 3.513063 34.202131 11.927195
2004-03-22 12:14:41 51°10.623 2°35.783 7.483578 3.51222 34.187196 14.152016
2004-03-22 12:15:41 51°10.456 2°35.592 7.46807 3.512641 34.195078 13.140734
2004-03-22 12:16:41 51°10.289 2°35.406 7.454118 3.511693 34.197277 13.91605
2004-03-22 12:17:41 51°10.12 2°35.22 7.454216 3.511588 34.204449 12.432836
2004-03-22 12:18:41 51°9.953 2°35.031 7.450703 3.512009 34.210675 12.702512
2004-03-22 12:19:41 51°9.785 2°34.844 7.476117 3.512747 34.208683 11.893486
2004-03-22 12:20:41 51°9.62 2°34.661 7.542214 3.51675 34.212124 11.488973
2004-03-22 12:21:41 51°9.454 2°34.488 7.609217 3.520542 34.187604 12.297999
2004-03-22 12:22:41 51°9.294 2°34.312 7.604545 3.524229 34.176929 10.983332
2004-03-22 12:23:41 51°9.134 2°34.14 7.548645 3.52012 34.181399 10.5114
2004-03-22 12:24:41 51°8.973 2°33.963 7.512245 3.515485 34.166943 11.354136
2004-03-22 12:25:41 51°8.811 2°33.781 7.537781 3.513378 34.15163 11.556392
2004-03-22 12:26:41 51°8.649 2°33.602 7.484017 3.511482 34.146873 12.365418
2004-03-22 12:27:41 51°8.486 2°33.419 7.47202 3.508954 34.159326 13.3767
2004-03-22 12:28:41 51°8.334 2°33.25 7.481189 3.50927 34.158597 14.893623
2004-03-22 12:29:41 51°8.211 2°33.125 7.477873 3.50948 34.152581 14.387982
2004-03-22 12:30:41 51°8.149 2°33.056 7.476702 3.508743 34.151238 12.938477
2004-03-22 12:31:41 51°8.131 2°33.01 7.475483 3.508216 34.14388 13.646375
2004-03-22 12:32:41 51°8.104 2°33 7.472313 3.507795 34.143468 13.241862
2004-03-22 12:33:41 51°8.108 2°33.029 7.468411 3.507268 34.140256 13.983469
2004-03-22 12:34:41 51°8.116 2°33.065 7.47202 3.507268 34.141915 13.107024
2004-03-22 12:35:41 51°8.126 2°33.103 7.485041 3.507689 34.139011 14.050888
2004-03-22 12:36:41 51°8.137 2°33.149 7.493672 3.508637 34.136832 12.871059
2004-03-22 12:37:41 51°8.149 2°33.198 7.493915 3.509164 34.137557 12.365418
2004-03-22 12:38:41 51°8.16 2°33.247 7.494549 3.509164 34.137557 13.477828
2004-03-22 12:39:41 51°8.168 2°33.292 7.493574 3.508953 34.136107 13.646375
2004-03-22 12:40:41 51°8.173 2°33.333 7.490502 3.508427 34.134553 13.848631
2004-03-22 12:41:41 51°8.175 2°33.369 7.488845 3.5079 34.128857 13.309281
2004-03-22 12:42:41 51°8.175 2°33.4 7.489869 3.507689 34.124921 13.983469
2004-03-22 12:43:41 51°8.175 2°33.427 7.492404 3.507057 34.117257 14.050888
2004-03-22 12:44:41 51°8.176 2°33.444 7.496402 3.506636 34.111044 12.972187
2004-03-22 12:45:41 51°8.2 2°33.421 7.496743 3.506741 34.109699 13.680084
2004-03-22 12:46:41 51°8.247 2°33.443 7.488162 3.506425 34.112078 13.208153
2004-03-22 12:47:41 51°8.299 2°33.504 7.48704 3.507162 34.120881 13.039606
2004-03-22 12:48:41 51°8.352 2°33.572 7.496256 3.507057 34.119742 13.309281
2004-03-22 12:49:41 51°8.4 2°33.639 7.498498 3.508848 34.132482 12.904768
2004-03-22 12:50:41 51°8.448 2°33.706 7.50118 3.510007 34.14087 13.208153
2004-03-22 12:51:41 51°8.499 2°33.784 7.50469 3.510639 34.143561 12.129452
2004-03-22 12:52:41 51°8.546 2°33.878 7.496451 3.510428 34.150399 11.151879
2004-03-22 12:53:41 51°8.588 2°33.979 7.49099 3.510428 34.152057 11.151879
2004-03-22 12:54:41 51°8.627 2°34.084 7.488991 3.510218 34.152266 11.08446
2004-03-22 12:55:41 51°8.665 2°34.191 7.496597 3.510639 34.155994 12.365418
2004-03-22 12:56:41 51°8.703 2°34.292 7.490892 3.510323 34.151747 12.365418
2004-03-22 12:57:41 51°8.74 2°34.391 7.491526 3.510534 34.154855 12.635093
2004-03-22 12:58:41 51°8.777 2°34.493 7.494208 3.510007 34.149158 13.444118
2004-03-22 12:59:41 51°8.81 2°34.599 7.502301 3.510639 34.148533 12.904768
2004-03-22 13:00:41 51°8.84 2°34.709 7.501765 3.510744 34.145529 12.635093
2004-03-22 13:01:41 51°8.865 2°34.821 7.503715 3.510744 34.148844 12.196871
2004-03-22 13:02:41 51°8.882 2°34.934 7.493672 3.510428 34.144597 13.241862
2004-03-22 13:03:41 51°8.899 2°35.047 7.497816 3.509059 34.138075 13.477828
2004-03-22 13:04:41 51°8.925 2°35.156 7.508784 3.508848 34.125855 13.073315
2004-03-22 13:05:41 51°8.958 2°35.259 7.51049 3.508637 34.119437 12.972187
2004-03-22 13:06:41 51°8.994 2°35.363 7.505177 3.508005 34.113432 13.005896
2004-03-22 13:07:41 51°9.027 2°35.471 7.503568 3.507373 34.105772 11.893486
2004-03-22 13:08:41 51°9.057 2°35.583 7.498645 3.506214 34.099038 12.331708
2004-03-22 13:09:41 51°9.082 2°35.699 7.509369 3.50653 34.099144 12.23058
2004-03-22 13:10:41 51°9.107 2°35.816 7.518874 3.507373 34.098325 11.792358
2004-03-22 13:11:41 51°9.137 2°35.928 7.52248 3.506951 34.086329 11.994614
2004-03-22 13:12:41 51°9.171 2°36.037 7.528718 3.507794 34.088821 12.500255
2004-03-22 13:13:41 51°9.208 2°36.14 7.534711 3.507689 34.084377 11.387845
2004-03-22 13:14:41 51°9.245 2°36.24 7.524819 3.507583 34.086545 15.331845
2004-03-22 13:15:41 51°9.278 2°36.34 7.523211 3.506951 34.083023 13.477828
2004-03-22 13:16:41 51°9.309 2°36.442 7.523942 3.507267 34.085611 13.3767
2004-03-22 13:17:41 51°9.34 2°36.543 7.530033 3.507267 34.079826 13.477828
2004-03-22 13:18:41 51°9.369 2°36.647 7.537781 3.507478 34.082102 12.095742
2004-03-22 13:19:41 51°9.397 2°36.75 7.540607 3.508215 34.080152 12.432836
2004-03-22 13:20:41 51°9.421 2°36.852 7.545673 3.507689 34.078594 12.23058
2004-03-22 13:21:41 51°9.444 2°36.954 7.565985 3.508847 34.072113 11.994614
2004-03-22 13:22:41 51°9.468 2°37.057 7.561553 3.510428 34.079264 12.668802
2004-03-22 13:23:41 51°9.49 2°37.162 7.557949 3.509795 34.076569 12.095742
2004-03-22 13:24:41 51°9.51 2°37.269 7.555416 3.508847 34.071288 13.140734
2004-03-22 13:25:41 51°9.529 2°37.375 7.550691 3.508426 34.072517 14.623947
2004-03-22 13:26:41 51°9.543 2°37.488 7.551178 3.507899 34.070133 12.196871
2004-03-22 13:27:41 51°9.555 2°37.607 7.547427 3.508426 34.072517 13.039606
2004-03-22 13:28:41 51°9.566 2°37.728 7.546014 3.507372 34.071051 12.500255
2004-03-22 13:29:41 51°9.577 2°37.849 7.549473 3.507478 34.06806 13.309281
2004-03-22 13:30:41 51°9.583 2°37.983 7.549765 3.508215 34.069417 12.331708
2004-03-22 13:31:41 51°9.582 2°38.092 7.549278 3.50811 34.071582 14.118306
2004-03-22 13:32:41 51°9.577 2°38.183 7.547427 3.508321 34.07138 14.185725
2004-03-22 13:33:41 51°9.571 2°38.261 7.553078 3.508742 34.075104 14.859913
2004-03-22 13:34:41 51°9.564 2°38.33 7.562332 3.509269 34.075836 13.275571
2004-03-22 13:35:41 51°9.555 2°38.401 7.556731 3.509479 34.074809 13.882341
2004-03-22 13:36:41 51°9.565 2°38.577 7.572462 3.50969 34.075432 14.826204
2004-03-22 13:37:41 51°9.631 2°38.755 7.577039 3.511902 34.085275 14.961042
2004-03-22 13:38:41 51°9.69 2°38.848 7.58147 3.512745 34.088592 13.3767
2004-03-22 13:39:41 51°9.737 2°38.918 7.580642 3.512324 34.088171 13.545247
2004-03-22 13:40:41 51°9.777 2°38.979 7.57626 3.512534 34.087144 14.961042
2004-03-22 13:41:41 51°9.876 2°39.118 7.565108 3.512008 34.091364 14.354272
2004-03-22 13:42:41 51°9.981 2°39.444 7.549473 3.510638 34.093097 15.534101
2004-03-22 13:43:41 51°10.072 2°39.834 7.549911 3.510533 34.089483 13.814922
2004-03-22 13:44:41 51°10.167 2°40.223 7.556098 3.511165 34.09961 14.253144
2004-03-22 13:45:41 51°10.26 2°40.611 7.559897 3.511165 34.096306 14.657657
2004-03-22 13:46:41 51°10.353 2°41.001 7.572462 3.511586 34.090945 14.859913
2004-03-22 13:47:41 51°10.445 2°41.389 7.57514 3.512113 34.089199 14.590238
2004-03-22 13:48:41 51°10.537 2°41.776 7.584002 3.512008 34.084762 15.095879
2004-03-22 13:49:41 51°10.625 2°42.163 7.585511 3.512745 34.086941 15.534101
2004-03-22 13:50:41 51°10.717 2°42.552 7.595442 3.513166 34.079939 12.635093
2004-03-22 13:51:41 51°10.806 2°42.941 7.607513 3.514115 34.081917 14.320563
2004-03-22 13:52:41 51°10.895 2°43.327 7.63233 3.514114 34.067084 15.534101
2004-03-22 13:53:41 51°10.978 2°43.719 7.674253 3.51601 34.052121 14.4554
2004-03-22 13:54:41 51°11.066 2°44.105 7.697489 3.517907 34.041299 15.736358
2004-03-22 13:55:41 51°11.156 2°44.489 7.704779 3.518855 34.040002 15.298136
2004-03-22 13:56:41 51°11.251 2°44.87 7.737087 3.519487 34.028745 15.60152
2004-03-22 13:57:41 51°11.354 2°45.251 7.783989 3.521382 34.007328 16.545383
2004-03-22 13:58:41 51°11.465 2°45.625 7.810581 3.523384 33.991185 17.522956
2004-03-22 13:59:41 51°11.577 2°45.998 7.817761 3.524332 33.987464 17.253281
2004-03-22 14:00:41 51°11.688 2°46.375 7.826299 3.524964 33.988523 17.455537
2004-03-22 14:01:41 51°11.799 2°46.751 7.816985 3.524437 33.987776 16.107161
2004-03-22 14:02:41 51°11.919 2°47.118 7.840509 3.525807 33.986943 17.86005
2004-03-22 14:03:41 51°12.041 2°47.486 7.848073 3.52686 33.983542 17.489247
2004-03-22 14:04:41 51°12.167 2°47.852 7.843321 3.526755 33.984861 17.28699
2004-03-22 14:05:41 51°12.291 2°48.219 7.832458 3.526755 33.987309 17.388118
2004-03-22 14:06:41 51°12.413 2°48.588 7.868774 3.52686 33.978648 17.691503
2004-03-22 14:07:41 51°12.535 2°48.957 7.894846 3.528651 33.968481 17.927469
2004-03-22 14:08:41 51°12.658 2°49.323 7.914563 3.530968 33.966409 18.163435
2004-03-22 14:09:41 51°12.787 2°49.681 7.92856 3.5316 33.959338 17.522956
2004-03-22 14:10:41 51°12.916 2°50.04 7.935969 3.532022 33.954086 18.062306
2004-03-22 14:11:41 51°13.043 2°50.399 7.938632 3.532865 33.956591 18.871332
2004-03-22 14:12:41 51°13.171 2°50.757 7.944781 3.533181 33.956717 19.680358
2004-03-22 14:13:41 51°13.3 2°51.116 7.958674 3.533707 33.95097 17.185862
2004-03-22 14:14:41 51°13.425 2°51.479 7.977936 3.535182 33.951293 18.871332
2004-03-22 14:15:41 51°13.547 2°51.846 7.999901 3.536341 33.947433 19.174717
2004-03-22 14:16:41 51°13.645 2°52.082 8.010977 3.5375 33.941956 19.747777
2004-03-22 14:17:41 51°13.71 2°52.203 8.012815 3.538026 33.939469 17.657794
2004-03-22 14:18:41 51°13.746 2°52.304 8.009091 3.537289 33.937276 19.141007
2004-03-22 14:19:41 51°13.774 2°52.395 8.021762 3.53771 33.934477 18.062306
2004-03-22 14:20:41 51°13.8 2°52.475 8.038829 3.539291 33.939176 16.848768
2004-03-22 14:21:41 51°13.851 2°52.621 8.046225 3.540344 33.935828 16.916187
2004-03-22 14:22:41 51°13.958 2°52.933 8.020456 3.539923 33.945105 18.43311
2004-03-22 14:23:41 51°14.081 2°53.291 8.016346 3.538342 33.937977 18.905042
2004-03-22 14:24:41 51°14.198 2°53.654 8.008366 3.538132 33.943024 19.54552
2004-03-22 14:25:41 51°14.316 2°54.015 8.008849 3.537184 33.936963 19.714067
2004-03-22 14:26:41 51°14.372 2°54.38 8.002707 3.537605 33.942269 19.848905
2004-03-22 14:27:41 51°14.399 2°54.74 8.00556 3.537184 33.93048 19.444392
2004-03-22 14:28:41 51°14.358 2°55.05 7.986839 3.525278 33.828588 20.11858
2004-03-22 14:29:41 51°14.266 2°55.257 8.330741 3.44131 32.742288 19.511811
2004-03-22 14:30:41 51°14.166 2°55.383 8.342001 3.305533 31.212514 18.905042
2004-03-22 14:31:41 51°14.054 2°55.468 8.368989 3.122511 29.276966 18.331982